sensor_id;sensor_type;location;lat;lon;timestamp;P1;durP1;ratioP1;P2;durP2;ratioP2
37377;SDS011;23248;48.120;14.854;2022-07-10T03:56:21;13.55;;;9.25;;
37377;SDS011;23248;48.120;14.854;2022-07-10T03:59:05;13.45;;;9.50;;
37377;SDS011;23248;48.120;14.854;2022-07-10T04:01:31;12.75;;;8.68;;
37377;SDS011;23248;48.120;14.854;2022-07-10T04:03:57;19.00;;;9.13;;
37377;SDS011;23248;48.120;14.854;2022-07-10T04:06:22;13.02;;;8.50;;
37377;SDS011;23248;48.120;14.854;2022-07-10T04:08:48;17.45;;;8.75;;
37377;SDS011;23248;48.120;14.854;2022-07-10T04:11:14;12.65;;;8.77;;
37377;SDS011;23248;48.120;14.854;2022-07-10T04:13:39;10.88;;;8.55;;
37377;SDS011;23248;48.120;14.854;2022-07-10T04:16:05;17.23;;;8.05;;
37377;SDS011;23248;48.120;14.854;2022-07-10T04:18:31;12.57;;;7.88;;
37377;SDS011;23248;48.120;14.854;2022-07-10T04:23:23;13.13;;;7.85;;
37377;SDS011;23248;48.120;14.854;2022-07-10T04:28:14;15.70;;;7.60;;
37377;SDS011;23248;48.120;14.854;2022-07-10T04:30:39;15.30;;;7.75;;
37377;SDS011;23248;48.120;14.854;2022-07-10T04:33:05;14.23;;;8.20;;
37377;SDS011;23248;48.120;14.854;2022-07-10T04:35:31;13.32;;;7.88;;
37377;SDS011;23248;48.120;14.854;2022-07-10T04:37:57;13.95;;;8.25;;
37377;SDS011;23248;48.120;14.854;2022-07-10T04:40:23;14.95;;;8.23;;
37377;SDS011;23248;48.120;14.854;2022-07-10T05:21:38;9.67;;;7.20;;
37377;SDS011;23248;48.120;14.854;2022-07-10T05:31:21;8.23;;;6.50;;
37377;SDS011;23248;48.120;14.854;2022-07-10T05:33:47;8.60;;;6.75;;
37377;SDS011;23248;48.120;14.854;2022-07-10T05:36:12;11.38;;;6.70;;
37377;SDS011;23248;48.120;14.854;2022-07-10T05:38:38;8.85;;;6.03;;
37377;SDS011;23248;48.120;14.854;2022-07-10T05:41:04;10.00;;;6.75;;
37377;SDS011;23248;48.120;14.854;2022-07-10T06:02:54;11.90;;;6.55;;
37377;SDS011;23248;48.120;14.854;2022-07-10T06:17:29;13.02;;;7.75;;
37377;SDS011;23248;48.120;14.854;2022-07-10T06:19:55;14.00;;;7.65;;
37377;SDS011;23248;48.120;14.854;2022-07-10T06:22:21;13.30;;;7.15;;
37377;SDS011;23248;48.120;14.854;2022-07-10T06:24:55;9.82;;;7.65;;
37377;SDS011;23248;48.120;14.854;2022-07-10T06:27:32;20.38;;;8.68;;
37377;SDS011;23248;48.120;14.854;2022-07-10T06:29:58;11.20;;;7.75;;
37377;SDS011;23248;48.120;14.854;2022-07-10T06:32:24;10.77;;;7.97;;
37377;SDS011;23248;48.120;14.854;2022-07-10T06:34:51;11.75;;;7.78;;
37377;SDS011;23248;48.120;14.854;2022-07-10T06:37:18;11.52;;;7.53;;
37377;SDS011;23248;48.120;14.854;2022-07-10T06:39:44;7.85;;;7.05;;
37377;SDS011;23248;48.120;14.854;2022-07-10T06:44:37;10.60;;;7.82;;
37377;SDS011;23248;48.120;14.854;2022-07-10T06:47:03;15.82;;;7.40;;
37377;SDS011;23248;48.120;14.854;2022-07-10T06:49:47;10.80;;;7.90;;
37377;SDS011;23248;48.120;14.854;2022-07-10T06:52:14;14.90;;;7.38;;
37377;SDS011;23248;48.120;14.854;2022-07-10T06:54:40;13.00;;;6.93;;
37377;SDS011;23248;48.120;14.854;2022-07-10T06:57:06;9.07;;;7.13;;
37377;SDS011;23248;48.120;14.854;2022-07-10T06:59:32;9.10;;;6.90;;
37377;SDS011;23248;48.120;14.854;2022-07-10T07:09:15;6.88;;;6.03;;
37377;SDS011;23248;48.120;14.854;2022-07-10T07:11:44;7.45;;;6.10;;
37377;SDS011;23248;48.120;14.854;2022-07-10T07:14:11;6.70;;;5.57;;
37377;SDS011;23248;48.120;14.854;2022-07-10T07:16:36;10.50;;;5.80;;
37377;SDS011;23248;48.120;14.854;2022-07-10T07:19:10;8.57;;;5.43;;
37377;SDS011;23248;48.120;14.854;2022-07-10T07:21:41;4.68;;;4.28;;
37377;SDS011;23248;48.120;14.854;2022-07-10T07:24:25;4.63;;;4.22;;
37377;SDS011;23248;48.120;14.854;2022-07-10T07:26:51;6.20;;;4.43;;
37377;SDS011;23248;48.120;14.854;2022-07-10T07:29:17;7.70;;;4.60;;
37377;SDS011;23248;48.120;14.854;2022-07-10T07:31:43;8.93;;;4.50;;
37377;SDS011;23248;48.120;14.854;2022-07-10T07:34:09;6.20;;;4.10;;
37377;SDS011;23248;48.120;14.854;2022-07-10T07:36:35;6.57;;;4.20;;
37377;SDS011;23248;48.120;14.854;2022-07-10T07:39:02;4.75;;;3.55;;
37377;SDS011;23248;48.120;14.854;2022-07-10T07:41:28;8.18;;;4.30;;
37377;SDS011;23248;48.120;14.854;2022-07-10T07:43:54;4.57;;;4.20;;
37377;SDS011;23248;48.120;14.854;2022-07-10T07:46:19;11.95;;;5.60;;
37377;SDS011;23248;48.120;14.854;2022-07-10T07:48:46;10.47;;;5.70;;
37377;SDS011;23248;48.120;14.854;2022-07-10T08:05:47;9.27;;;5.72;;
37377;SDS011;23248;48.120;14.854;2022-07-10T08:08:13;8.60;;;5.18;;
37377;SDS011;23248;48.120;14.854;2022-07-10T08:15:31;8.15;;;5.38;;
37377;SDS011;23248;48.120;14.854;2022-07-10T08:17:59;8.32;;;5.15;;
37377;SDS011;23248;48.120;14.854;2022-07-10T08:20:26;9.45;;;4.75;;
37377;SDS011;23248;48.120;14.854;2022-07-10T08:22:52;6.15;;;4.53;;
37377;SDS011;23248;48.120;14.854;2022-07-10T08:25:18;5.35;;;4.40;;
37377;SDS011;23248;48.120;14.854;2022-07-10T08:27:45;10.50;;;4.40;;
37377;SDS011;23248;48.120;14.854;2022-07-10T08:35:03;7.90;;;5.55;;
37377;SDS011;23248;48.120;14.854;2022-07-10T08:42:27;6.55;;;4.60;;
37377;SDS011;23248;48.120;14.854;2022-07-10T08:44:52;5.75;;;3.90;;
37377;SDS011;23248;48.120;14.854;2022-07-10T08:47:20;5.72;;;3.35;;
37377;SDS011;23248;48.120;14.854;2022-07-10T08:49:48;5.30;;;3.83;;
37377;SDS011;23248;48.120;14.854;2022-07-10T09:11:56;5.65;;;3.70;;
37377;SDS011;23248;48.120;14.854;2022-07-10T09:14:22;7.20;;;3.50;;
37377;SDS011;23248;48.120;14.854;2022-07-10T09:16:51;4.40;;;3.60;;
37377;SDS011;23248;48.120;14.854;2022-07-10T09:19:20;7.00;;;3.35;;
37377;SDS011;23248;48.120;14.854;2022-07-10T09:36:42;4.90;;;4.45;;
37377;SDS011;23248;48.120;14.854;2022-07-10T09:39:08;4.63;;;3.53;;
37377;SDS011;23248;48.120;14.854;2022-07-10T09:41:35;5.78;;;3.50;;
37377;SDS011;23248;48.120;14.854;2022-07-10T09:44:04;3.53;;;3.20;;
37377;SDS011;23248;48.120;14.854;2022-07-10T09:46:36;5.07;;;3.03;;
37377;SDS011;23248;48.120;14.854;2022-07-10T09:51:37;6.20;;;2.83;;
37377;SDS011;23248;48.120;14.854;2022-07-10T09:58:59;4.57;;;2.50;;
37377;SDS011;23248;48.120;14.854;2022-07-10T10:01:27;6.55;;;2.65;;
37377;SDS011;23248;48.120;14.854;2022-07-10T10:03:55;2.38;;;2.15;;
37377;SDS011;23248;48.120;14.854;2022-07-10T10:06:26;2.90;;;2.70;;
37377;SDS011;23248;48.120;14.854;2022-07-10T10:08:59;3.45;;;2.20;;
37377;SDS011;23248;48.120;14.854;2022-07-10T10:11:28;2.70;;;2.50;;
37377;SDS011;23248;48.120;14.854;2022-07-10T10:24:02;2.90;;;2.70;;
37377;SDS011;23248;48.120;14.854;2022-07-10T10:26:28;3.42;;;2.20;;
37377;SDS011;23248;48.120;14.854;2022-07-10T10:54:31;3.00;;;2.17;;
37377;SDS011;23248;48.120;14.854;2022-07-10T10:57:17;2.13;;;1.92;;
37377;SDS011;23248;48.120;14.854;2022-07-10T11:17:55;3.80;;;1.60;;
37377;SDS011;23248;48.120;14.854;2022-07-10T11:20:22;6.20;;;1.90;;
37377;SDS011;23248;48.120;14.854;2022-07-10T11:28:15;5.38;;;1.73;;
37377;SDS011;23248;48.120;14.854;2022-07-10T11:30:54;3.47;;;2.00;;
37377;SDS011;23248;48.120;14.854;2022-07-10T11:33:20;2.50;;;1.70;;
37377;SDS011;23248;48.120;14.854;2022-07-10T11:35:47;4.18;;;1.77;;
37377;SDS011;23248;48.120;14.854;2022-07-10T11:38:24;5.18;;;1.90;;
37377;SDS011;23248;48.120;14.854;2022-07-10T11:40:51;2.10;;;1.70;;
37377;SDS011;23248;48.120;14.854;2022-07-10T11:43:20;5.15;;;2.00;;
37377;SDS011;23248;48.120;14.854;2022-07-10T11:45:49;3.53;;;1.80;;
37377;SDS011;23248;48.120;14.854;2022-07-10T11:48:19;3.13;;;1.88;;
37377;SDS011;23248;48.120;14.854;2022-07-10T11:50:46;4.70;;;1.98;;
37377;SDS011;23248;48.120;14.854;2022-07-10T11:53:12;3.05;;;1.75;;
37377;SDS011;23248;48.120;14.854;2022-07-10T11:55:38;4.65;;;1.80;;
37377;SDS011;23248;48.120;14.854;2022-07-10T12:10:38;9.30;;;1.40;;
37377;SDS011;23248;48.120;14.854;2022-07-10T12:13:07;4.40;;;1.58;;
37377;SDS011;23248;48.120;14.854;2022-07-10T12:15:37;2.13;;;1.40;;
37377;SDS011;23248;48.120;14.854;2022-07-10T12:18:07;1.50;;;1.40;;
37377;SDS011;23248;48.120;14.854;2022-07-10T12:20:34;1.67;;;1.40;;
37377;SDS011;23248;48.120;14.854;2022-07-10T12:23:02;1.98;;;1.20;;
37377;SDS011;23248;48.120;14.854;2022-07-10T12:25:28;2.30;;;1.30;;
37377;SDS011;23248;48.120;14.854;2022-07-10T12:30:21;1.67;;;1.33;;
37377;SDS011;23248;48.120;14.854;2022-07-10T12:32:47;3.70;;;1.25;;
37377;SDS011;23248;48.120;14.854;2022-07-10T12:43:02;1.70;;;1.10;;
37377;SDS011;23248;48.120;14.854;2022-07-10T12:45:29;2.00;;;0.90;;
37377;SDS011;23248;48.120;14.854;2022-07-10T12:47:55;1.10;;;1.00;;
37377;SDS011;23248;48.120;14.854;2022-07-10T13:22:23;2.80;;;0.95;;
37377;SDS011;23248;48.120;14.854;2022-07-10T13:24:49;2.92;;;0.90;;
37377;SDS011;23248;48.120;14.854;2022-07-10T14:03:42;2.42;;;0.85;;
37377;SDS011;23248;48.120;14.854;2022-07-10T14:55:08;0.95;;;0.63;;
37377;SDS011;23248;48.120;14.854;2022-07-10T14:57:34;3.80;;;1.17;;
37377;SDS011;23248;48.120;14.854;2022-07-10T15:24:17;0.95;;;0.77;;
37377;SDS011;23248;48.120;14.854;2022-07-10T15:41:22;1.38;;;0.90;;
37377;SDS011;23248;48.120;14.854;2022-07-10T15:43:47;1.58;;;0.75;;
37377;SDS011;23248;48.120;14.854;2022-07-10T15:46:13;1.52;;;0.80;;
37377;SDS011;23248;48.120;14.854;2022-07-10T15:48:40;3.50;;;1.00;;
37377;SDS011;23248;48.120;14.854;2022-07-10T15:51:06;1.10;;;0.77;;
37377;SDS011;23248;48.120;14.854;2022-07-10T15:53:32;2.22;;;0.75;;
37377;SDS011;23248;48.120;14.854;2022-07-10T15:55:57;1.02;;;0.88;;
37377;SDS011;23248;48.120;14.854;2022-07-10T15:58:23;2.63;;;0.93;;
37377;SDS011;23248;48.120;14.854;2022-07-10T16:00:49;2.03;;;0.80;;
37377;SDS011;23248;48.120;14.854;2022-07-10T16:03:15;3.35;;;0.80;;
37377;SDS011;23248;48.120;14.854;2022-07-10T16:05:40;1.90;;;1.00;;
37377;SDS011;23248;48.120;14.854;2022-07-10T16:08:06;2.20;;;0.88;;
37377;SDS011;23248;48.120;14.854;2022-07-10T16:10:32;1.63;;;0.73;;
37377;SDS011;23248;48.120;14.854;2022-07-10T16:20:14;1.25;;;0.77;;
37377;SDS011;23248;48.120;14.854;2022-07-10T16:22:40;1.92;;;1.05;;
37377;SDS011;23248;48.120;14.854;2022-07-10T16:25:06;2.33;;;1.02;;
37377;SDS011;23248;48.120;14.854;2022-07-10T16:27:50;1.20;;;0.80;;
37377;SDS011;23248;48.120;14.854;2022-07-10T16:32:42;0.80;;;0.77;;
37377;SDS011;23248;48.120;14.854;2022-07-10T17:48:17;3.38;;;0.70;;
37377;SDS011;23248;48.120;14.854;2022-07-10T17:50:43;2.42;;;0.60;;
37377;SDS011;23248;48.120;14.854;2022-07-10T17:53:09;2.53;;;0.70;;
37377;SDS011;23248;48.120;14.854;2022-07-10T17:55:34;2.67;;;0.70;;
37377;SDS011;23248;48.120;14.854;2022-07-10T17:58:01;1.25;;;0.73;;
37377;SDS011;23248;48.120;14.854;2022-07-10T18:00:28;2.65;;;0.65;;
37377;SDS011;23248;48.120;14.854;2022-07-10T18:02:54;1.27;;;0.70;;
37377;SDS011;23248;48.120;14.854;2022-07-10T18:05:20;0.75;;;0.50;;
37377;SDS011;23248;48.120;14.854;2022-07-10T18:07:45;1.55;;;0.70;;
37377;SDS011;23248;48.120;14.854;2022-07-10T18:10:11;1.05;;;0.50;;
37377;SDS011;23248;48.120;14.854;2022-07-10T19:40:24;3.65;;;0.88;;
37377;SDS011;23248;48.120;14.854;2022-07-10T19:42:51;0.98;;;0.80;;
37377;SDS011;23248;48.120;14.854;2022-07-10T19:47:43;3.93;;;0.60;;
37377;SDS011;23248;48.120;14.854;2022-07-10T22:01:49;4.63;;;0.95;;
37377;SDS011;23248;48.120;14.854;2022-07-10T22:04:15;2.33;;;0.90;;
